sensor_id;sensor_type;location;lat;lon;timestamp;P1;durP1;ratioP1;P2;durP2;ratioP2
71914;SDS011;60387;49.994;14.660;2023-06-24T00:01:41;0.63;;;0.40;;
71914;SDS011;60387;49.994;14.660;2023-06-24T00:04:15;0.20;;;0.10;;
71914;SDS011;60387;49.994;14.660;2023-06-24T00:06:48;0.43;;;0.20;;
71914;SDS011;60387;49.994;14.660;2023-06-24T00:09:21;0.77;;;0.60;;
71914;SDS011;60387;49.994;14.660;2023-06-24T00:11:55;0.33;;;0.30;;
71914;SDS011;60387;49.994;14.660;2023-06-24T00:14:31;0.50;;;0.43;;
71914;SDS011;60387;49.994;14.660;2023-06-24T00:17:04;0.50;;;0.40;;
71914;SDS011;60387;49.994;14.660;2023-06-24T00:19:38;0.10;;;0.10;;
71914;SDS011;60387;49.994;14.660;2023-06-24T00:22:11;0.10;;;0.10;;
71914;SDS011;60387;49.994;14.660;2023-06-24T00:24:44;0.20;;;0.10;;
71914;SDS011;60387;49.994;14.660;2023-06-24T00:27:18;0.30;;;0.27;;
71914;SDS011;60387;49.994;14.660;2023-06-24T00:29:51;0.10;;;0.10;;
71914;SDS011;60387;49.994;14.660;2023-06-24T00:32:24;0.20;;;0.10;;
71914;SDS011;60387;49.994;14.660;2023-06-24T00:34:57;0.10;;;0.10;;
71914;SDS011;60387;49.994;14.660;2023-06-24T00:37:31;0.60;;;0.33;;
71914;SDS011;60387;49.994;14.660;2023-06-24T00:40:04;0.57;;;0.20;;
71914;SDS011;60387;49.994;14.660;2023-06-24T00:42:40;0.55;;;0.40;;
71914;SDS011;60387;49.994;14.660;2023-06-24T00:45:14;0.20;;;0.10;;
71914;SDS011;60387;49.994;14.660;2023-06-24T00:47:48;0.20;;;0.10;;
71914;SDS011;60387;49.994;14.660;2023-06-24T00:50:21;0.27;;;0.20;;
71914;SDS011;60387;49.994;14.660;2023-06-24T00:52:55;0.25;;;0.22;;
71914;SDS011;60387;49.994;14.660;2023-06-24T00:55:28;0.17;;;0.10;;
71914;SDS011;60387;49.994;14.660;2023-06-24T00:58:01;0.20;;;0.10;;
71914;SDS011;60387;49.994;14.660;2023-06-24T01:00:35;0.20;;;0.20;;
71914;SDS011;60387;49.994;14.660;2023-06-24T01:03:09;0.43;;;0.20;;
71914;SDS011;60387;49.994;14.660;2023-06-24T01:05:44;0.10;;;0.10;;
71914;SDS011;60387;49.994;14.660;2023-06-24T01:08:18;0.20;;;0.10;;
71914;SDS011;60387;49.994;14.660;2023-06-24T01:10:51;0.13;;;0.10;;
71914;SDS011;60387;49.994;14.660;2023-06-24T01:13:25;0.10;;;0.10;;
71914;SDS011;60387;49.994;14.660;2023-06-24T01:16:02;0.20;;;0.10;;
71914;SDS011;60387;49.994;14.660;2023-06-24T01:18:44;0.10;;;0.10;;
71914;SDS011;60387;49.994;14.660;2023-06-24T01:24:32;0.45;;;0.40;;
71914;SDS011;60387;49.994;14.660;2023-06-24T01:27:43;0.17;;;0.10;;
71914;SDS011;60387;49.994;14.660;2023-06-24T01:33:26;0.15;;;0.10;;
71914;SDS011;60387;49.994;14.660;2023-06-24T01:36:35;0.15;;;0.10;;
71914;SDS011;60387;49.994;14.660;2023-06-24T01:39:10;0.30;;;0.20;;
71914;SDS011;60387;49.994;14.660;2023-06-24T01:41:48;0.10;;;0.10;;
71914;SDS011;60387;49.994;14.660;2023-06-24T01:44:27;0.10;;;0.10;;
71914;SDS011;60387;49.994;14.660;2023-06-24T01:47:02;0.20;;;0.20;;
71914;SDS011;60387;49.994;14.660;2023-06-24T01:49:38;0.20;;;0.10;;
71914;SDS011;60387;49.994;14.660;2023-06-24T01:52:14;0.45;;;0.20;;
71914;SDS011;60387;49.994;14.660;2023-06-24T01:54:49;0.10;;;0.10;;
71914;SDS011;60387;49.994;14.660;2023-06-24T01:57:24;0.45;;;0.28;;
71914;SDS011;60387;49.994;14.660;2023-06-24T02:00:00;0.20;;;0.10;;
71914;SDS011;60387;49.994;14.660;2023-06-24T02:02:34;0.10;;;0.10;;
71914;SDS011;60387;49.994;14.660;2023-06-24T02:05:09;1.50;;;1.40;;
71914;SDS011;60387;49.994;14.660;2023-06-24T02:07:44;0.10;;;0.10;;
71914;SDS011;60387;49.994;14.660;2023-06-24T02:10:20;0.28;;;0.20;;
71914;SDS011;60387;49.994;14.660;2023-06-24T02:12:54;0.10;;;0.10;;
71914;SDS011;60387;49.994;14.660;2023-06-24T02:15:29;0.10;;;0.10;;
71914;SDS011;60387;49.994;14.660;2023-06-24T02:18:03;0.10;;;0.10;;
71914;SDS011;60387;49.994;14.660;2023-06-24T02:20:38;1.33;;;0.40;;
71914;SDS011;60387;49.994;14.660;2023-06-24T02:23:12;0.10;;;0.10;;
71914;SDS011;60387;49.994;14.660;2023-06-24T02:25:46;0.10;;;0.10;;
71914;SDS011;60387;49.994;14.660;2023-06-24T02:28:21;0.13;;;0.13;;
71914;SDS011;60387;49.994;14.660;2023-06-24T02:30:54;0.17;;;0.10;;
71914;SDS011;60387;49.994;14.660;2023-06-24T02:33:29;0.40;;;0.20;;
71914;SDS011;60387;49.994;14.660;2023-06-24T02:36:03;0.27;;;0.13;;
71914;SDS011;60387;49.994;14.660;2023-06-24T02:38:36;0.40;;;0.25;;
71914;SDS011;60387;49.994;14.660;2023-06-24T02:41:10;0.10;;;0.10;;
71914;SDS011;60387;49.994;14.660;2023-06-24T02:43:43;0.17;;;0.13;;
71914;SDS011;60387;49.994;14.660;2023-06-24T02:46:16;0.10;;;0.10;;
71914;SDS011;60387;49.994;14.660;2023-06-24T02:48:51;0.10;;;0.10;;
71914;SDS011;60387;49.994;14.660;2023-06-24T02:51:25;0.23;;;0.17;;
71914;SDS011;60387;49.994;14.660;2023-06-24T02:53:59;0.10;;;0.10;;
71914;SDS011;60387;49.994;14.660;2023-06-24T02:56:34;0.10;;;0.10;;
71914;SDS011;60387;49.994;14.660;2023-06-24T02:59:08;0.20;;;0.20;;
71914;SDS011;60387;49.994;14.660;2023-06-24T03:01:41;0.10;;;0.10;;
71914;SDS011;60387;49.994;14.660;2023-06-24T03:04:15;0.10;;;0.10;;
71914;SDS011;60387;49.994;14.660;2023-06-24T03:06:48;0.23;;;0.17;;
71914;SDS011;60387;49.994;14.660;2023-06-24T03:09:22;0.40;;;0.30;;
71914;SDS011;60387;49.994;14.660;2023-06-24T03:11:55;0.00;;;0.00;;
71914;SDS011;60387;49.994;14.660;2023-06-24T03:14:29;0.10;;;0.10;;
71914;SDS011;60387;49.994;14.660;2023-06-24T03:17:02;0.10;;;0.10;;
71914;SDS011;60387;49.994;14.660;2023-06-24T03:19:36;0.10;;;0.10;;
71914;SDS011;60387;49.994;14.660;2023-06-24T03:22:09;0.10;;;0.10;;
71914;SDS011;60387;49.994;14.660;2023-06-24T03:24:43;0.10;;;0.10;;
71914;SDS011;60387;49.994;14.660;2023-06-24T03:27:16;0.20;;;0.10;;
71914;SDS011;60387;49.994;14.660;2023-06-24T03:29:49;0.20;;;0.20;;
71914;SDS011;60387;49.994;14.660;2023-06-24T03:32:23;0.10;;;0.10;;
71914;SDS011;60387;49.994;14.660;2023-06-24T03:34:56;0.10;;;0.03;;
71914;SDS011;60387;49.994;14.660;2023-06-24T03:37:29;0.30;;;0.20;;
71914;SDS011;60387;49.994;14.660;2023-06-24T03:40:03;0.73;;;0.33;;
71914;SDS011;60387;49.994;14.660;2023-06-24T03:42:36;0.10;;;0.10;;
71914;SDS011;60387;49.994;14.660;2023-06-24T03:45:10;0.10;;;0.10;;
71914;SDS011;60387;49.994;14.660;2023-06-24T03:47:43;0.13;;;0.10;;
71914;SDS011;60387;49.994;14.660;2023-06-24T03:50:16;0.10;;;0.10;;
71914;SDS011;60387;49.994;14.660;2023-06-24T03:52:50;0.10;;;0.10;;
71914;SDS011;60387;49.994;14.660;2023-06-24T03:55:23;0.10;;;0.10;;
71914;SDS011;60387;49.994;14.660;2023-06-24T03:57:56;0.23;;;0.17;;
71914;SDS011;60387;49.994;14.660;2023-06-24T04:00:30;0.73;;;0.20;;
71914;SDS011;60387;49.994;14.660;2023-06-24T04:03:03;0.60;;;0.37;;
71914;SDS011;60387;49.994;14.660;2023-06-24T04:05:36;0.73;;;0.20;;
71914;SDS011;60387;49.994;14.660;2023-06-24T04:08:10;0.20;;;0.13;;
71914;SDS011;60387;49.994;14.660;2023-06-24T04:10:43;0.13;;;0.10;;
71914;SDS011;60387;49.994;14.660;2023-06-24T04:13:16;0.20;;;0.10;;
71914;SDS011;60387;49.994;14.660;2023-06-24T04:15:49;0.23;;;0.20;;
71914;SDS011;60387;49.994;14.660;2023-06-24T04:18:23;0.40;;;0.20;;
71914;SDS011;60387;49.994;14.660;2023-06-24T04:20:56;0.30;;;0.30;;
71914;SDS011;60387;49.994;14.660;2023-06-24T04:23:29;0.20;;;0.10;;
71914;SDS011;60387;49.994;14.660;2023-06-24T04:26:02;0.20;;;0.10;;
71914;SDS011;60387;49.994;14.660;2023-06-24T04:28:36;2.40;;;0.60;;
71914;SDS011;60387;49.994;14.660;2023-06-24T04:31:09;0.10;;;0.10;;
71914;SDS011;60387;49.994;14.660;2023-06-24T04:33:42;0.20;;;0.10;;
71914;SDS011;60387;49.994;14.660;2023-06-24T04:36:16;0.37;;;0.20;;
71914;SDS011;60387;49.994;14.660;2023-06-24T04:38:49;0.33;;;0.30;;
71914;SDS011;60387;49.994;14.660;2023-06-24T04:41:22;0.20;;;0.10;;
71914;SDS011;60387;49.994;14.660;2023-06-24T04:43:56;0.43;;;0.30;;
71914;SDS011;60387;49.994;14.660;2023-06-24T04:46:29;0.10;;;0.10;;
71914;SDS011;60387;49.994;14.660;2023-06-24T04:49:02;0.10;;;0.10;;
71914;SDS011;60387;49.994;14.660;2023-06-24T04:51:35;0.20;;;0.10;;
71914;SDS011;60387;49.994;14.660;2023-06-24T04:54:09;0.53;;;0.30;;
71914;SDS011;60387;49.994;14.660;2023-06-24T04:56:42;0.13;;;0.10;;
71914;SDS011;60387;49.994;14.660;2023-06-24T04:59:15;0.20;;;0.10;;
71914;SDS011;60387;49.994;14.660;2023-06-24T05:01:48;0.10;;;0.10;;
71914;SDS011;60387;49.994;14.660;2023-06-24T05:04:22;0.10;;;0.10;;
71914;SDS011;60387;49.994;14.660;2023-06-24T05:06:55;0.10;;;0.10;;
71914;SDS011;60387;49.994;14.660;2023-06-24T05:09:28;0.20;;;0.20;;
71914;SDS011;60387;49.994;14.660;2023-06-24T05:12:02;0.13;;;0.10;;
71914;SDS011;60387;49.994;14.660;2023-06-24T05:14:35;0.10;;;0.10;;
71914;SDS011;60387;49.994;14.660;2023-06-24T05:17:09;0.40;;;0.10;;
71914;SDS011;60387;49.994;14.660;2023-06-24T05:19:42;0.10;;;0.10;;
71914;SDS011;60387;49.994;14.660;2023-06-24T05:22:16;0.10;;;0.10;;
71914;SDS011;60387;49.994;14.660;2023-06-24T05:24:49;0.10;;;0.10;;
71914;SDS011;60387;49.994;14.660;2023-06-24T05:27:22;0.10;;;0.10;;
71914;SDS011;60387;49.994;14.660;2023-06-24T05:29:55;0.20;;;0.17;;
71914;SDS011;60387;49.994;14.660;2023-06-24T05:32:29;0.37;;;0.20;;
71914;SDS011;60387;49.994;14.660;2023-06-24T05:35:02;0.10;;;0.10;;
71914;SDS011;60387;49.994;14.660;2023-06-24T05:37:35;0.10;;;0.10;;
71914;SDS011;60387;49.994;14.660;2023-06-24T05:40:09;0.30;;;0.20;;
71914;SDS011;60387;49.994;14.660;2023-06-24T05:42:42;0.20;;;0.20;;
71914;SDS011;60387;49.994;14.660;2023-06-24T05:45:16;0.10;;;0.10;;
71914;SDS011;60387;49.994;14.660;2023-06-24T05:47:49;0.10;;;0.10;;
71914;SDS011;60387;49.994;14.660;2023-06-24T05:50:22;0.10;;;0.10;;
71914;SDS011;60387;49.994;14.660;2023-06-24T05:52:55;0.20;;;0.10;;
71914;SDS011;60387;49.994;14.660;2023-06-24T05:55:29;0.73;;;0.33;;
71914;SDS011;60387;49.994;14.660;2023-06-24T05:58:02;0.17;;;0.10;;
71914;SDS011;60387;49.994;14.660;2023-06-24T06:00:36;0.10;;;0.03;;
71914;SDS011;60387;49.994;14.660;2023-06-24T06:03:09;0.10;;;0.10;;
71914;SDS011;60387;49.994;14.660;2023-06-24T06:05:43;0.20;;;0.10;;
71914;SDS011;60387;49.994;14.660;2023-06-24T06:08:16;0.20;;;0.10;;
71914;SDS011;60387;49.994;14.660;2023-06-24T06:10:49;0.20;;;0.20;;
71914;SDS011;60387;49.994;14.660;2023-06-24T06:13:22;0.20;;;0.10;;
71914;SDS011;60387;49.994;14.660;2023-06-24T06:15:56;0.20;;;0.13;;
71914;SDS011;60387;49.994;14.660;2023-06-24T06:18:30;0.10;;;0.10;;
71914;SDS011;60387;49.994;14.660;2023-06-24T06:21:03;1.47;;;0.17;;
71914;SDS011;60387;49.994;14.660;2023-06-24T06:23:37;0.33;;;0.23;;
71914;SDS011;60387;49.994;14.660;2023-06-24T06:26:10;0.13;;;0.10;;
71914;SDS011;60387;49.994;14.660;2023-06-24T06:28:43;0.20;;;0.20;;
71914;SDS011;60387;49.994;14.660;2023-06-24T06:31:16;0.50;;;0.40;;
71914;SDS011;60387;49.994;14.660;2023-06-24T06:33:50;0.20;;;0.10;;
71914;SDS011;60387;49.994;14.660;2023-06-24T06:36:23;0.30;;;0.23;;
71914;SDS011;60387;49.994;14.660;2023-06-24T06:38:56;0.43;;;0.27;;
71914;SDS011;60387;49.994;14.660;2023-06-24T06:41:29;0.10;;;0.10;;
71914;SDS011;60387;49.994;14.660;2023-06-24T06:44:03;0.30;;;0.13;;
71914;SDS011;60387;49.994;14.660;2023-06-24T06:46:36;0.37;;;0.27;;
71914;SDS011;60387;49.994;14.660;2023-06-24T06:49:09;0.30;;;0.10;;
71914;SDS011;60387;49.994;14.660;2023-06-24T06:51:43;0.23;;;0.20;;
71914;SDS011;60387;49.994;14.660;2023-06-24T06:54:16;0.10;;;0.10;;
71914;SDS011;60387;49.994;14.660;2023-06-24T06:56:49;0.20;;;0.10;;
71914;SDS011;60387;49.994;14.660;2023-06-24T06:59:22;0.10;;;0.10;;
71914;SDS011;60387;49.994;14.660;2023-06-24T07:01:56;0.20;;;0.10;;
71914;SDS011;60387;49.994;14.660;2023-06-24T07:04:29;0.40;;;0.27;;
71914;SDS011;60387;49.994;14.660;2023-06-24T07:07:04;0.30;;;0.20;;
71914;SDS011;60387;49.994;14.660;2023-06-24T07:09:37;0.50;;;0.20;;
71914;SDS011;60387;49.994;14.660;2023-06-24T07:12:10;0.20;;;0.17;;
71914;SDS011;60387;49.994;14.660;2023-06-24T07:14:44;0.20;;;0.10;;
71914;SDS011;60387;49.994;14.660;2023-06-24T07:17:17;0.13;;;0.10;;
71914;SDS011;60387;49.994;14.660;2023-06-24T07:19:50;0.53;;;0.40;;
71914;SDS011;60387;49.994;14.660;2023-06-24T07:22:24;0.20;;;0.13;;
71914;SDS011;60387;49.994;14.660;2023-06-24T07:24:57;0.53;;;0.30;;
71914;SDS011;60387;49.994;14.660;2023-06-24T07:27:30;0.20;;;0.10;;
71914;SDS011;60387;49.994;14.660;2023-06-24T07:30:04;0.10;;;0.10;;
71914;SDS011;60387;49.994;14.660;2023-06-24T07:32:38;0.30;;;0.20;;
71914;SDS011;60387;49.994;14.660;2023-06-24T07:35:11;0.50;;;0.20;;
71914;SDS011;60387;49.994;14.660;2023-06-24T07:37:45;0.40;;;0.27;;
71914;SDS011;60387;49.994;14.660;2023-06-24T07:40:18;0.20;;;0.13;;
71914;SDS011;60387;49.994;14.660;2023-06-24T07:42:52;0.40;;;0.20;;
71914;SDS011;60387;49.994;14.660;2023-06-24T07:45:26;0.68;;;0.50;;
71914;SDS011;60387;49.994;14.660;2023-06-24T07:47:59;0.23;;;0.23;;
71914;SDS011;60387;49.994;14.660;2023-06-24T07:50:33;0.57;;;0.30;;
71914;SDS011;60387;49.994;14.660;2023-06-24T07:53:07;0.77;;;0.30;;
71914;SDS011;60387;49.994;14.660;2023-06-24T07:55:40;1.40;;;0.40;;
71914;SDS011;60387;49.994;14.660;2023-06-24T07:58:13;1.80;;;0.50;;
71914;SDS011;60387;49.994;14.660;2023-06-24T08:00:47;0.77;;;0.40;;
71914;SDS011;60387;49.994;14.660;2023-06-24T08:03:20;1.73;;;0.50;;
71914;SDS011;60387;49.994;14.660;2023-06-24T08:05:53;0.43;;;0.30;;
71914;SDS011;60387;49.994;14.660;2023-06-24T08:08:26;1.20;;;0.33;;
71914;SDS011;60387;49.994;14.660;2023-06-24T08:11:00;0.30;;;0.20;;
71914;SDS011;60387;49.994;14.660;2023-06-24T08:13:33;0.40;;;0.30;;
71914;SDS011;60387;49.994;14.660;2023-06-24T08:16:06;0.60;;;0.40;;
71914;SDS011;60387;49.994;14.660;2023-06-24T08:18:39;0.70;;;0.40;;
71914;SDS011;60387;49.994;14.660;2023-06-24T08:21:13;0.40;;;0.30;;
71914;SDS011;60387;49.994;14.660;2023-06-24T08:23:46;1.47;;;0.50;;
71914;SDS011;60387;49.994;14.660;2023-06-24T08:26:19;1.13;;;0.70;;
71914;SDS011;60387;49.994;14.660;2023-06-24T08:28:53;0.87;;;0.57;;
71914;SDS011;60387;49.994;14.660;2023-06-24T08:31:26;0.67;;;0.40;;
71914;SDS011;60387;49.994;14.660;2023-06-24T08:33:59;0.60;;;0.40;;
71914;SDS011;60387;49.994;14.660;2023-06-24T08:36:33;0.90;;;0.47;;
71914;SDS011;60387;49.994;14.660;2023-06-24T08:39:07;0.90;;;0.67;;
71914;SDS011;60387;49.994;14.660;2023-06-24T08:41:40;0.40;;;0.30;;
71914;SDS011;60387;49.994;14.660;2023-06-24T08:44:14;0.80;;;0.50;;
71914;SDS011;60387;49.994;14.660;2023-06-24T08:46:47;1.80;;;0.70;;
71914;SDS011;60387;49.994;14.660;2023-06-24T08:54:31;1.00;;;0.70;;
71914;SDS011;60387;49.994;14.660;2023-06-24T08:57:13;0.70;;;0.40;;
71914;SDS011;60387;49.994;14.660;2023-06-24T08:59:46;0.90;;;0.60;;
71914;SDS011;60387;49.994;14.660;2023-06-24T09:02:19;0.70;;;0.47;;
71914;SDS011;60387;49.994;14.660;2023-06-24T09:04:53;0.50;;;0.40;;
71914;SDS011;60387;49.994;14.660;2023-06-24T09:07:26;0.60;;;0.40;;
71914;SDS011;60387;49.994;14.660;2023-06-24T09:10:00;2.10;;;0.50;;
71914;SDS011;60387;49.994;14.660;2023-06-24T09:12:34;0.43;;;0.30;;
71914;SDS011;60387;49.994;14.660;2023-06-24T09:15:07;1.53;;;0.87;;
71914;SDS011;60387;49.994;14.660;2023-06-24T09:17:47;0.68;;;0.40;;
71914;SDS011;60387;49.994;14.660;2023-06-24T09:20:20;0.40;;;0.30;;
71914;SDS011;60387;49.994;14.660;2023-06-24T09:23:03;1.10;;;0.77;;
71914;SDS011;60387;49.994;14.660;2023-06-24T09:25:36;3.38;;;1.00;;
71914;SDS011;60387;49.994;14.660;2023-06-24T09:28:11;1.03;;;0.57;;
71914;SDS011;60387;49.994;14.660;2023-06-24T09:30:46;0.70;;;0.50;;
71914;SDS011;60387;49.994;14.660;2023-06-24T09:33:21;0.40;;;0.30;;
71914;SDS011;60387;49.994;14.660;2023-06-24T09:35:56;0.70;;;0.50;;
71914;SDS011;60387;49.994;14.660;2023-06-24T09:38:36;0.70;;;0.50;;
71914;SDS011;60387;49.994;14.660;2023-06-24T09:41:10;1.10;;;0.40;;
71914;SDS011;60387;49.994;14.660;2023-06-24T09:43:44;0.88;;;0.50;;
71914;SDS011;60387;49.994;14.660;2023-06-24T09:46:17;0.73;;;0.40;;
71914;SDS011;60387;49.994;14.660;2023-06-24T09:48:51;1.08;;;0.40;;
71914;SDS011;60387;49.994;14.660;2023-06-24T09:51:24;0.70;;;0.40;;
71914;SDS011;60387;49.994;14.660;2023-06-24T09:53:58;1.13;;;0.50;;
71914;SDS011;60387;49.994;14.660;2023-06-24T09:56:32;0.70;;;0.40;;
71914;SDS011;60387;49.994;14.660;2023-06-24T09:59:08;1.05;;;0.63;;
71914;SDS011;60387;49.994;14.660;2023-06-24T10:01:43;0.57;;;0.38;;
71914;SDS011;60387;49.994;14.660;2023-06-24T10:04:17;0.70;;;0.50;;
71914;SDS011;60387;49.994;14.660;2023-06-24T10:06:51;0.97;;;0.60;;
71914;SDS011;60387;49.994;14.660;2023-06-24T10:09:25;0.40;;;0.30;;
71914;SDS011;60387;49.994;14.660;2023-06-24T10:11:58;1.07;;;0.60;;
71914;SDS011;60387;49.994;14.660;2023-06-24T10:14:32;0.43;;;0.30;;
71914;SDS011;60387;49.994;14.660;2023-06-24T10:17:05;1.75;;;0.40;;
71914;SDS011;60387;49.994;14.660;2023-06-24T10:19:39;0.80;;;0.40;;
71914;SDS011;60387;49.994;14.660;2023-06-24T10:22:13;0.40;;;0.30;;
71914;SDS011;60387;49.994;14.660;2023-06-24T10:24:47;1.90;;;0.63;;
71914;SDS011;60387;49.994;14.660;2023-06-24T10:27:21;0.83;;;0.50;;
71914;SDS011;60387;49.994;14.660;2023-06-24T10:29:55;0.75;;;0.45;;
71914;SDS011;60387;49.994;14.660;2023-06-24T10:32:28;0.70;;;0.53;;
71914;SDS011;60387;49.994;14.660;2023-06-24T10:35:23;0.93;;;0.47;;
71914;SDS011;60387;49.994;14.660;2023-06-24T10:38:00;0.68;;;0.50;;
71914;SDS011;60387;49.994;14.660;2023-06-24T10:40:38;1.03;;;0.50;;
71914;SDS011;60387;49.994;14.660;2023-06-24T10:45:58;0.50;;;0.40;;
71914;SDS011;60387;49.994;14.660;2023-06-24T10:48:31;0.98;;;0.52;;
71914;SDS011;60387;49.994;14.660;2023-06-24T10:51:05;0.80;;;0.50;;
71914;SDS011;60387;49.994;14.660;2023-06-24T10:53:38;0.60;;;0.40;;
71914;SDS011;60387;49.994;14.660;2023-06-24T10:56:11;0.40;;;0.30;;
71914;SDS011;60387;49.994;14.660;2023-06-24T10:58:54;0.50;;;0.40;;
71914;SDS011;60387;49.994;14.660;2023-06-24T11:01:29;0.90;;;0.60;;
71914;SDS011;60387;49.994;14.660;2023-06-24T11:04:05;0.80;;;0.33;;
71914;SDS011;60387;49.994;14.660;2023-06-24T11:06:38;0.50;;;0.32;;
71914;SDS011;60387;49.994;14.660;2023-06-24T11:09:12;0.63;;;0.50;;
71914;SDS011;60387;49.994;14.660;2023-06-24T11:11:45;0.60;;;0.40;;
71914;SDS011;60387;49.994;14.660;2023-06-24T11:14:21;0.60;;;0.40;;
71914;SDS011;60387;49.994;14.660;2023-06-24T11:16:55;0.65;;;0.40;;
71914;SDS011;60387;49.994;14.660;2023-06-24T11:19:29;1.43;;;0.60;;
71914;SDS011;60387;49.994;14.660;2023-06-24T11:22:03;0.95;;;0.45;;
71914;SDS011;60387;49.994;14.660;2023-06-24T11:24:36;1.50;;;0.90;;
71914;SDS011;60387;49.994;14.660;2023-06-24T11:27:09;1.27;;;0.53;;
71914;SDS011;60387;49.994;14.660;2023-06-24T11:29:43;1.17;;;0.80;;
71914;SDS011;60387;49.994;14.660;2023-06-24T11:32:17;0.70;;;0.40;;
71914;SDS011;60387;49.994;14.660;2023-06-24T11:34:50;0.50;;;0.37;;
71914;SDS011;60387;49.994;14.660;2023-06-24T11:37:30;0.70;;;0.40;;
71914;SDS011;60387;49.994;14.660;2023-06-24T11:40:04;1.20;;;0.68;;
71914;SDS011;60387;49.994;14.660;2023-06-24T11:42:39;1.23;;;0.60;;
71914;SDS011;60387;49.994;14.660;2023-06-24T11:45:13;0.85;;;0.50;;
71914;SDS011;60387;49.994;14.660;2023-06-24T11:47:47;1.57;;;0.77;;
71914;SDS011;60387;49.994;14.660;2023-06-24T11:50:25;1.47;;;0.60;;
71914;SDS011;60387;49.994;14.660;2023-06-24T11:52:59;1.30;;;0.73;;
71914;SDS011;60387;49.994;14.660;2023-06-24T11:55:32;1.30;;;0.70;;
71914;SDS011;60387;49.994;14.660;2023-06-24T11:58:05;1.23;;;0.60;;
71914;SDS011;60387;49.994;14.660;2023-06-24T12:00:39;0.97;;;0.60;;
71914;SDS011;60387;49.994;14.660;2023-06-24T12:03:12;0.70;;;0.40;;
71914;SDS011;60387;49.994;14.660;2023-06-24T12:05:46;0.60;;;0.43;;
71914;SDS011;60387;49.994;14.660;2023-06-24T12:08:20;0.50;;;0.40;;
71914;SDS011;60387;49.994;14.660;2023-06-24T12:10:53;0.63;;;0.40;;
71914;SDS011;60387;49.994;14.660;2023-06-24T12:13:30;0.88;;;0.40;;
71914;SDS011;60387;49.994;14.660;2023-06-24T12:16:03;0.50;;;0.40;;
71914;SDS011;60387;49.994;14.660;2023-06-24T12:18:37;1.80;;;0.43;;
71914;SDS011;60387;49.994;14.660;2023-06-24T12:21:10;0.80;;;0.47;;
71914;SDS011;60387;49.994;14.660;2023-06-24T12:23:44;0.97;;;0.50;;
71914;SDS011;60387;49.994;14.660;2023-06-24T12:26:17;0.70;;;0.50;;
71914;SDS011;60387;49.994;14.660;2023-06-24T12:28:53;0.67;;;0.40;;
71914;SDS011;60387;49.994;14.660;2023-06-24T12:31:27;0.90;;;0.45;;
71914;SDS011;60387;49.994;14.660;2023-06-24T12:34:00;0.83;;;0.53;;
71914;SDS011;60387;49.994;14.660;2023-06-24T12:36:33;0.80;;;0.50;;
71914;SDS011;60387;49.994;14.660;2023-06-24T12:39:07;0.63;;;0.40;;
71914;SDS011;60387;49.994;14.660;2023-06-24T12:41:40;0.40;;;0.30;;
71914;SDS011;60387;49.994;14.660;2023-06-24T12:44:13;1.00;;;0.60;;
71914;SDS011;60387;49.994;14.660;2023-06-24T12:46:46;1.47;;;0.50;;
71914;SDS011;60387;49.994;14.660;2023-06-24T12:49:20;0.90;;;0.40;;
71914;SDS011;60387;49.994;14.660;2023-06-24T12:51:53;0.87;;;0.60;;
71914;SDS011;60387;49.994;14.660;2023-06-24T12:54:26;0.97;;;0.80;;
71914;SDS011;60387;49.994;14.660;2023-06-24T12:57:00;0.77;;;0.57;;
71914;SDS011;60387;49.994;14.660;2023-06-24T12:59:34;1.02;;;0.70;;
71914;SDS011;60387;49.994;14.660;2023-06-24T13:02:07;1.23;;;0.70;;
71914;SDS011;60387;49.994;14.660;2023-06-24T13:04:41;0.90;;;0.50;;
71914;SDS011;60387;49.994;14.660;2023-06-24T13:07:14;0.80;;;0.60;;
71914;SDS011;60387;49.994;14.660;2023-06-24T13:09:47;0.90;;;0.40;;
71914;SDS011;60387;49.994;14.660;2023-06-24T13:12:20;0.60;;;0.30;;
71914;SDS011;60387;49.994;14.660;2023-06-24T13:14:54;1.10;;;0.60;;
71914;SDS011;60387;49.994;14.660;2023-06-24T13:17:28;0.90;;;0.40;;
71914;SDS011;60387;49.994;14.660;2023-06-24T13:20:01;0.90;;;0.55;;
71914;SDS011;60387;49.994;14.660;2023-06-24T13:22:35;0.73;;;0.47;;
71914;SDS011;60387;49.994;14.660;2023-06-24T13:25:09;0.97;;;0.60;;
71914;SDS011;60387;49.994;14.660;2023-06-24T13:27:42;0.83;;;0.43;;
71914;SDS011;60387;49.994;14.660;2023-06-24T13:30:16;0.90;;;0.50;;
71914;SDS011;60387;49.994;14.660;2023-06-24T13:32:49;1.40;;;0.60;;
71914;SDS011;60387;49.994;14.660;2023-06-24T13:35:22;2.87;;;0.80;;
71914;SDS011;60387;49.994;14.660;2023-06-24T13:37:55;1.37;;;0.83;;
71914;SDS011;60387;49.994;14.660;2023-06-24T13:40:29;0.63;;;0.43;;
71914;SDS011;60387;49.994;14.660;2023-06-24T13:43:02;0.50;;;0.37;;
71914;SDS011;60387;49.994;14.660;2023-06-24T13:45:35;0.90;;;0.50;;
71914;SDS011;60387;49.994;14.660;2023-06-24T13:48:08;0.50;;;0.40;;
71914;SDS011;60387;49.994;14.660;2023-06-24T13:50:42;0.70;;;0.40;;
71914;SDS011;60387;49.994;14.660;2023-06-24T13:53:15;0.73;;;0.60;;
71914;SDS011;60387;49.994;14.660;2023-06-24T13:55:48;0.50;;;0.30;;
71914;SDS011;60387;49.994;14.660;2023-06-24T13:58:21;0.50;;;0.40;;
71914;SDS011;60387;49.994;14.660;2023-06-24T14:00:55;0.50;;;0.30;;
71914;SDS011;60387;49.994;14.660;2023-06-24T14:03:28;0.57;;;0.40;;
71914;SDS011;60387;49.994;14.660;2023-06-24T14:06:02;0.73;;;0.30;;
71914;SDS011;60387;49.994;14.660;2023-06-24T14:08:36;0.60;;;0.40;;
71914;SDS011;60387;49.994;14.660;2023-06-24T14:11:09;0.40;;;0.30;;
71914;SDS011;60387;49.994;14.660;2023-06-24T14:13:43;0.40;;;0.30;;
71914;SDS011;60387;49.994;14.660;2023-06-24T14:16:16;0.50;;;0.30;;
71914;SDS011;60387;49.994;14.660;2023-06-24T14:18:49;0.93;;;0.60;;
71914;SDS011;60387;49.994;14.660;2023-06-24T14:21:23;1.30;;;0.70;;
71914;SDS011;60387;49.994;14.660;2023-06-24T14:23:56;0.50;;;0.40;;
71914;SDS011;60387;49.994;14.660;2023-06-24T14:26:30;0.50;;;0.30;;
71914;SDS011;60387;49.994;14.660;2023-06-24T14:29:03;0.60;;;0.43;;
71914;SDS011;60387;49.994;14.660;2023-06-24T14:31:37;1.00;;;0.53;;
71914;SDS011;60387;49.994;14.660;2023-06-24T14:34:10;0.57;;;0.40;;
71914;SDS011;60387;49.994;14.660;2023-06-24T14:36:43;0.37;;;0.27;;
71914;SDS011;60387;49.994;14.660;2023-06-24T14:39:17;1.40;;;0.60;;
71914;SDS011;60387;49.994;14.660;2023-06-24T14:41:50;0.70;;;0.50;;
71914;SDS011;60387;49.994;14.660;2023-06-24T14:44:23;0.47;;;0.37;;
71914;SDS011;60387;49.994;14.660;2023-06-24T14:46:57;0.60;;;0.33;;
71914;SDS011;60387;49.994;14.660;2023-06-24T14:49:30;0.90;;;0.43;;
71914;SDS011;60387;49.994;14.660;2023-06-24T14:52:03;0.90;;;0.50;;
71914;SDS011;60387;49.994;14.660;2023-06-24T14:54:36;0.70;;;0.50;;
71914;SDS011;60387;49.994;14.660;2023-06-24T14:57:10;1.00;;;0.57;;
71914;SDS011;60387;49.994;14.660;2023-06-24T14:59:43;0.80;;;0.52;;
71914;SDS011;60387;49.994;14.660;2023-06-24T15:02:16;0.40;;;0.30;;
71914;SDS011;60387;49.994;14.660;2023-06-24T15:04:50;0.43;;;0.27;;
71914;SDS011;60387;49.994;14.660;2023-06-24T15:07:23;0.40;;;0.30;;
71914;SDS011;60387;49.994;14.660;2023-06-24T15:09:56;0.50;;;0.40;;
71914;SDS011;60387;49.994;14.660;2023-06-24T15:12:30;0.70;;;0.50;;
71914;SDS011;60387;49.994;14.660;2023-06-24T15:15:03;0.50;;;0.30;;
71914;SDS011;60387;49.994;14.660;2023-06-24T15:17:37;0.50;;;0.40;;
71914;SDS011;60387;49.994;14.660;2023-06-24T15:20:10;2.00;;;0.60;;
71914;SDS011;60387;49.994;14.660;2023-06-24T15:22:44;0.95;;;0.40;;
71914;SDS011;60387;49.994;14.660;2023-06-24T15:25:17;0.80;;;0.40;;
71914;SDS011;60387;49.994;14.660;2023-06-24T15:27:51;0.90;;;0.40;;